Aviation Digital Data Service (ADDS)

Output produced by METARs form (0606 UTC 25 June 2018)
found at http://www.aviationweather.gov/adds/metars/
 
OJAQ 250600Z 36016KT CAVOK 29/16 Q1008 NOSIG
TAF OJAQ 250450Z 2506/2612 35014KT 7000 NSC 
     PROB30 2510/2516 01018KT 
     PROB30 2512/2516 4000 BLDU 
     BECMG 2516/2518 36010KT 8000 NSC
       
OJAM 250600Z 01006KT 8000 NSC 24/08 Q1013 NOSIG
TAF OJAM 250450Z 2506/2610 28012KT 5000 HZ NSC 
     TEMPO 2512/2516 30015KT 
     BECMG 2516/2518 32010KT 6000 NSC 
     TEMPO 2600/2606 4000 HZ 
     BECMG 2605/2607 28012KT 5000 HZ NSC
       
OJAI 250600Z 29008KT 7000 NSC 24/11 Q1013 NOSIG
TAF OJAI 250450Z 2506/2612 29014KT 7000 NSC 
     PROB40 2512/2516 30016KT 
     BECMG 2516/2518 33010KT 8000 NSC 
     BECMG 2605/2607 29014KT 6000 NSC
       
OJAM 250600Z 01006KT 8000 NSC 24/08 Q1013 NOSIG
TAF OJAM 250450Z 2506/2610 28012KT 5000 HZ NSC 
     TEMPO 2512/2516 30015KT 
     BECMG 2516/2518 32010KT 6000 NSC 
     TEMPO 2600/2606 4000 HZ 
     BECMG 2605/2607 28012KT 5000 HZ NSC
       
OJAQ 250600Z 36016KT CAVOK 29/16 Q1008 NOSIG
TAF OJAQ 250450Z 2506/2612 35014KT 7000 NSC 
     PROB30 2510/2516 01018KT 
     PROB30 2512/2516 4000 BLDU 
     BECMG 2516/2518 36010KT 8000 NSC
       
OJAI 250600Z 29008KT 7000 NSC 24/11 Q1013 NOSIG
TAF OJAI 250450Z 2506/2612 29014KT 7000 NSC 
     PROB40 2512/2516 30016KT 
     BECMG 2516/2518 33010KT 8000 NSC 
     BECMG 2605/2607 29014KT 6000 NSC